S 386 Casilo — OZZP — position and weather

sailwx.info

Track history (hours):
 
Tides and Currents Weather Stations Pressure Air Temp Water Temp Dewpoint Dewpoint Depression Visibility Wind Speed Wind Dir Waves Ship Positions

S 386 Casilo

Last reported at 2016-Aug-24 20:25 UTC. Time now 2016-Aug-24 21:30 UTC.
Position N 58°08' E 010°23'.

Length 24 m.

Type: Fishing. MMSI: 219948000.

Date/timePositionNaut miles runAvg speedWind from/ knotsBaromVisibWave heightAir tempDewpointWater temp
2016-Aug-24 20:25N 58°08' E 010°23'8 8.8
2016-Aug-24 19:33N 58°06' E 010°37'1 0.3
2016-Aug-24 16:33N 58°07' E 010°38'6 1.8
2016-Aug-24 13:25N 58°10' E 010°29'2 1.9
2016-Aug-24 12:22N 58°10' E 010°26'6 1.9
2016-Aug-24 09:22N 58°10' E 010°15'2 0.1
2016-Aug-23 17:32N 58°11' E 010°17'8 8.4
2016-Aug-23 16:33N 58°13' E 010°33'9 8.9
2016-Aug-23 15:32N 58°17' E 010°49'9 9.3
2016-Aug-23 14:33N 58°20' E 011°05'5 4.9
2016-Aug-23 13:33N 58°21' E 011°14'0 0.0
2016-Aug-23 12:33N 58°21' E 011°14'4 3.6
2016-Aug-23 11:33N 58°22' E 011°07'9 8.7
2016-Aug-23 10:33N 58°28' E 010°54'9 8.9
2016-Aug-23 09:33N 58°33' E 010°40'9 8.7
2016-Aug-23 08:33N 58°38' E 010°27'9 8.7
2016-Aug-23 07:33N 58°44' E 010°15'7 6.5
2016-Aug-23 06:33N 58°49' E 010°07'2 1.5
2016-Aug-23 05:33N 58°49' E 010°10'2 2.0
2016-Aug-23 04:33N 58°47' E 010°12'2 2.0
2016-Aug-23 03:33N 58°46' E 010°15'2 2.0
2016-Aug-23 02:33N 58°45' E 010°18'2 2.1
2016-Aug-23 01:33N 58°43' E 010°21'2 2.1
2016-Aug-23 00:33N 58°42' E 010°24'2 2.1
2016-Aug-22 23:33N 58°40' E 010°28'2 2.2
2016-Aug-22 22:33N 58°38' E 010°29'2 2.2
2016-Aug-22 21:33N 58°36' E 010°31'2 2.1
2016-Aug-22 20:32N 58°34' E 010°33'2 2.5
2016-Aug-22 19:34N 58°32' E 010°34'7 6.8
2016-Aug-22 18:33N 58°38' E 010°27'3 2.7
2016-Aug-22 17:33N 58°40' E 010°24'2 1.6
2016-Aug-22 16:33N 58°39' E 010°25'2 2.1
2016-Aug-22 15:32N 58°37' E 010°27'2 2.1
2016-Aug-22 14:33N 58°35' E 010°29'4 3.6
2016-Aug-22 13:34N 58°37' E 010°22'1 0.8
2016-Aug-22 12:33N 58°36' E 010°23'2 2.2
2016-Aug-22 11:33N 58°34' E 010°25'5 4.9
2016-Aug-22 10:30N 58°37' E 010°18'8 8.5
2016-Aug-22 09:32N 58°44' E 010°10'4 4.4
2016-Aug-22 08:33N 58°48' E 010°06'2 1.6
2016-Aug-22 07:33N 58°47' E 010°08'2 1.9
2016-Aug-22 06:33N 58°46' E 010°11'2 2.0
2016-Aug-22 05:33N 58°44' E 010°13'2 2.1
2016-Aug-22 04:33N 58°43' E 010°16'2 2.1
2016-Aug-22 03:33N 58°41' E 010°17'2 2.1
2016-Aug-22 02:33N 58°39' E 010°19'2 2.1
2016-Aug-22 01:33N 58°37' E 010°22'2 2.1
2016-Aug-22 00:32N 58°35' E 010°24'2 2.0
2016-Aug-21 23:33N 58°34' E 010°26'2 2.1
2016-Aug-21 22:33N 58°32' E 010°28'1 1.1
2016-Aug-21 21:33N 58°33' E 010°28'9 8.6
2016-Aug-21 20:33N 58°40' E 010°18'8 7.9
2016-Aug-21 19:34N 58°47' E 010°10'1 1.2
2016-Aug-21 18:33N 58°46' E 010°12'2 2.0
2016-Aug-21 17:33N 58°44' E 010°14'2 2.0
2016-Aug-21 16:33N 58°43' E 010°16'2 2.0
2016-Aug-21 15:34N 58°41' E 010°18'2 1.9
2016-Aug-21 14:33N 58°39' E 010°20'2 2.1
2016-Aug-21 13:33N 58°37' E 010°22'2 2.1
2016-Aug-21 12:32N 58°36' E 010°24'2 2.1
2016-Aug-21 11:32N 58°34' E 010°26'2 2.1
2016-Aug-21 10:32N 58°32' E 010°28'4 3.5
2016-Aug-21 09:32N 58°30' E 010°33'1010.0
2016-Aug-21 08:33N 58°26' E 010°50'1010.3
2016-Aug-21 07:33N 58°21' E 011°08'3 3.2
2016-Aug-21 06:33N 58°21' E 011°14'0 0.0
2016-Aug-21 05:33N 58°21' E 011°14'0 0.0
2016-Aug-21 04:33N 58°21' E 011°14'2 2.3
2016-Aug-21 03:32N 58°21' E 011°09'8 7.9
2016-Aug-21 02:33N 58°27' E 010°58'8 7.6
2016-Aug-21 01:34N 58°31' E 010°47'8 7.8
2016-Aug-21 00:33N 58°36' E 010°35'8 7.9
2016-Aug-20 23:33N 58°42' E 010°25'7 6.6
2016-Aug-20 22:33N 58°47' E 010°16'4 4.3
2016-Aug-20 21:34N 58°49' E 010°10'1 1.5
2016-Aug-20 20:33N 58°48' E 010°11'2 2.0
2016-Aug-20 19:33N 58°47' E 010°14'2 2.0
2016-Aug-20 18:33N 58°45' E 010°16'2 2.1
2016-Aug-20 17:33N 58°44' E 010°19'2 2.2
2016-Aug-20 16:33N 58°42' E 010°21'2 2.1
2016-Aug-20 15:33N 58°40' E 010°23'2 2.1
2016-Aug-20 14:33N 58°38' E 010°25'2 2.1
2016-Aug-20 13:33N 58°36' E 010°26'2 2.2
2016-Aug-20 12:33N 58°34' E 010°28'2 2.0
2016-Aug-20 11:33N 58°32' E 010°30'3 2.3
2016-Aug-20 10:22N 58°34' E 010°25'7 8.6
2016-Aug-20 09:33N 58°39' E 010°18'6 6.5
2016-Aug-20 08:33N 58°45' E 010°13'1 1.5
2016-Aug-20 07:34N 58°44' E 010°15'2 2.0
2016-Aug-20 06:33N 58°42' E 010°17'2 2.0
2016-Aug-20 05:33N 58°41' E 010°19'2 2.0
2016-Aug-20 04:33N 58°39' E 010°21'2 2.0
2016-Aug-20 03:33N 58°37' E 010°23'2 2.0
2016-Aug-20 02:33N 58°36' E 010°25'2 2.0
2016-Aug-20 01:28N 58°34' E 010°27'2 2.0
2016-Aug-20 00:33N 58°32' E 010°28'3 2.5
2016-Aug-19 23:33N 58°30' E 010°31'8 7.4
2016-Aug-19 22:32N 58°37' E 010°24'8 8.6
2016-Aug-19 21:33N 58°44' E 010°16'1 1.5
2016-Aug-19 20:33N 58°45' E 010°15'2 2.1
2016-Aug-19 19:33N 58°43' E 010°17'2 2.1
2016-Aug-19 18:33N 58°42' E 010°19'2 2.1
2016-Aug-19 17:33N 58°40' E 010°20'2 2.2
2016-Aug-19 16:33N 58°38' E 010°22'2 2.1
2016-Aug-19 15:33N 58°36' E 010°25'2 2.1
2016-Aug-19 14:33N 58°34' E 010°27'2 2.0
2016-Aug-19 13:33N 58°32' E 010°28'2 0.8
2016-Aug-19 11:14N 58°34' E 010°27'6 8.1
2016-Aug-19 10:33N 58°39' E 010°21'5 4.9
2016-Aug-19 09:33N 58°44' E 010°19'2 1.6
2016-Aug-19 08:33N 58°42' E 010°21'2 2.1
2016-Aug-19 07:33N 58°41' E 010°24'2 2.1
2016-Aug-19 06:33N 58°39' E 010°26'2 2.1
2016-Aug-19 05:33N 58°37' E 010°28'2 2.2
2016-Aug-19 04:33N 58°35' E 010°30'2 2.2
2016-Aug-19 03:33N 58°33' E 010°32'41 6.7
2016-Aug-18 21:21N 57°52' E 010°40'7 9.4
2016-Aug-18 20:33N 57°45' E 010°43'4 0.3
2016-Aug-18 09:22N 57°48' E 010°45'10 9.6
2016-Aug-18 08:21N 57°57' E 010°53'21 9.6
2016-Aug-18 06:12N 58°16' E 011°10'6 9.1
2016-Aug-18 05:34N 58°21' E 011°14'0 0.2
2016-Aug-18 04:33N 58°21' E 011°14'25 2.2
2016-Aug-17 17:22N 58°10' E 010°31'4 1.1
2016-Aug-17 13:22N 58°11' E 010°23'2 1.9
2016-Aug-17 12:33N 58°11' E 010°20'2 2.0
2016-Aug-17 11:32N 58°11' E 010°16'2 2.0
2016-Aug-17 10:33N 58°10' E 010°13'2 1.9
2016-Aug-17 09:33N 58°09' E 010°10'2 2.0
2016-Aug-17 08:33N 58°08' E 010°06'3 2.0
2016-Aug-17 07:16N 58°07' E 010°02'2 2.9
2016-Aug-17 06:33N 58°06' E 009°58'8 8.4
2016-Aug-17 05:33N 58°03' E 009°43'2 1.4
2016-Aug-17 04:28N 58°03' E 009°41'2 2.1
2016-Aug-17 03:32N 58°02' E 009°37'2 1.9
2016-Aug-17 02:32N 58°01' E 009°34'4 2.1
2016-Aug-17 00:26N 57°59' E 009°27'4 2.0
2016-Aug-16 22:31N 57°57' E 009°20'8 2.0
2016-Aug-16 18:33N 57°53' E 009°07'2 2.0
2016-Aug-16 17:33N 57°52' E 009°04'38 2.8
2016-Aug-16 04:04N 58°10' E 010°07'1 2.1
2016-Aug-16 03:33N 58°10' E 010°05'5 2.1
2016-Aug-16 01:09N 58°07' E 009°57'2 2.1
2016-Aug-16 00:21N 58°06' E 009°54'2 2.0
2016-Aug-15 23:29N 58°05' E 009°52'4 1.9
2016-Aug-15 21:33N 58°04' E 009°45'2 2.2
2016-Aug-15 20:33N 58°03' E 009°41'4 2.1
2016-Aug-15 18:29N 58°01' E 009°34'4 2.0
2016-Aug-15 16:32N 57°59' E 009°27'1 0.1
2016-Aug-15 03:25N 57°58' E 009°26'6 2.0
2016-Aug-15 00:16N 57°56' E 009°15'2 2.0
2016-Aug-14 23:27N 57°55' E 009°12'2 2.0
2016-Aug-14 22:29N 57°54' E 009°09'2 2.0
2016-Aug-14 21:17N 57°53' E 009°05'1 2.0
2016-Aug-14 20:33N 57°52' E 009°03'  
Track history (hours):
 
Tides and Currents Weather Stations Pressure Air Temp Water Temp Dewpoint Dewpoint Depression Visibility Wind Speed Wind Dir Waves Ship Positions

S 386 Casilo

Last reported at 2016-Aug-24 20:25 UTC. Time now 2016-Aug-24 21:30 UTC.
Position N 58°08' E 010°23'.

Length 24 m.

Type: Fishing. MMSI: 219948000.

Date/timePositionNaut miles runAvg speedWind from/ knotsBaromVisibWave heightAir tempDewpointWater temp
2016-Aug-24 20:25N 58°08' E 010°23'8 8.8
2016-Aug-24 19:33N 58°06' E 010°37'1 0.3
2016-Aug-24 16:33N 58°07' E 010°38'6 1.8
2016-Aug-24 13:25N 58°10' E 010°29'2 1.9
2016-Aug-24 12:22N 58°10' E 010°26'6 1.9
2016-Aug-24 09:22N 58°10' E 010°15'2 0.1
2016-Aug-23 17:32N 58°11' E 010°17'8 8.4
2016-Aug-23 16:33N 58°13' E 010°33'9 8.9
2016-Aug-23 15:32N 58°17' E 010°49'9 9.3
2016-Aug-23 14:33N 58°20' E 011°05'5 4.9
2016-Aug-23 13:33N 58°21' E 011°14'0 0.0
2016-Aug-23 12:33N 58°21' E 011°14'4 3.6
2016-Aug-23 11:33N 58°22' E 011°07'9 8.7
2016-Aug-23 10:33N 58°28' E 010°54'9 8.9
2016-Aug-23 09:33N 58°33' E 010°40'9 8.7
2016-Aug-23 08:33N 58°38' E 010°27'9 8.7
2016-Aug-23 07:33N 58°44' E 010°15'7 6.5
2016-Aug-23 06:33N 58°49' E 010°07'2 1.5
2016-Aug-23 05:33N 58°49' E 010°10'2 2.0
2016-Aug-23 04:33N 58°47' E 010°12'2 2.0
2016-Aug-23 03:33N 58°46' E 010°15'2 2.0
2016-Aug-23 02:33N 58°45' E 010°18'2 2.1
2016-Aug-23 01:33N 58°43' E 010°21'2 2.1
2016-Aug-23 00:33N 58°42' E 010°24'2 2.1
2016-Aug-22 23:33N 58°40' E 010°28'2 2.2
2016-Aug-22 22:33N 58°38' E 010°29'2 2.2
2016-Aug-22 21:33N 58°36' E 010°31'2 2.1
2016-Aug-22 20:32N 58°34' E 010°33'2 2.5
2016-Aug-22 19:34N 58°32' E 010°34'7 6.8
2016-Aug-22 18:33N 58°38' E 010°27'3 2.7
2016-Aug-22 17:33N 58°40' E 010°24'2 1.6
2016-Aug-22 16:33N 58°39' E 010°25'2 2.1
2016-Aug-22 15:32N 58°37' E 010°27'2 2.1
2016-Aug-22 14:33N 58°35' E 010°29'4 3.6
2016-Aug-22 13:34N 58°37' E 010°22'1 0.8
2016-Aug-22 12:33N 58°36' E 010°23'2 2.2
2016-Aug-22 11:33N 58°34' E 010°25'5 4.9
2016-Aug-22 10:30N 58°37' E 010°18'8 8.5
2016-Aug-22 09:32N 58°44' E 010°10'4 4.4
2016-Aug-22 08:33N 58°48' E 010°06'2 1.6
2016-Aug-22 07:33N 58°47' E 010°08'2 1.9
2016-Aug-22 06:33N 58°46' E 010°11'2 2.0
2016-Aug-22 05:33N 58°44' E 010°13'2 2.1
2016-Aug-22 04:33N 58°43' E 010°16'2 2.1
2016-Aug-22 03:33N 58°41' E 010°17'2 2.1
2016-Aug-22 02:33N 58°39' E 010°19'2 2.1
2016-Aug-22 01:33N 58°37' E 010°22'2 2.1
2016-Aug-22 00:32N 58°35' E 010°24'2 2.0
2016-Aug-21 23:33N 58°34' E 010°26'2 2.1
2016-Aug-21 22:33N 58°32' E 010°28'1 1.1
2016-Aug-21 21:33N 58°33' E 010°28'9 8.6
2016-Aug-21 20:33N 58°40' E 010°18'8 7.9
2016-Aug-21 19:34N 58°47' E 010°10'1 1.2
2016-Aug-21 18:33N 58°46' E 010°12'2 2.0
2016-Aug-21 17:33N 58°44' E 010°14'2 2.0
2016-Aug-21 16:33N 58°43' E 010°16'2 2.0
2016-Aug-21 15:34N 58°41' E 010°18'2 1.9
2016-Aug-21 14:33N 58°39' E 010°20'2 2.1
2016-Aug-21 13:33N 58°37' E 010°22'2 2.1
2016-Aug-21 12:32N 58°36' E 010°24'2 2.1
2016-Aug-21 11:32N 58°34' E 010°26'2 2.1
2016-Aug-21 10:32N 58°32' E 010°28'4 3.5
2016-Aug-21 09:32N 58°30' E 010°33'1010.0
2016-Aug-21 08:33N 58°26' E 010°50'1010.3
2016-Aug-21 07:33N 58°21' E 011°08'3 3.2
2016-Aug-21 06:33N 58°21' E 011°14'0 0.0
2016-Aug-21 05:33N 58°21' E 011°14'0 0.0
2016-Aug-21 04:33N 58°21' E 011°14'2 2.3
2016-Aug-21 03:32N 58°21' E 011°09'8 7.9
2016-Aug-21 02:33N 58°27' E 010°58'8 7.6
2016-Aug-21 01:34N 58°31' E 010°47'8 7.8
2016-Aug-21 00:33N 58°36' E 010°35'8 7.9
2016-Aug-20 23:33N 58°42' E 010°25'7 6.6
2016-Aug-20 22:33N 58°47' E 010°16'4 4.3
2016-Aug-20 21:34N 58°49' E 010°10'1 1.5
2016-Aug-20 20:33N 58°48' E 010°11'2 2.0
2016-Aug-20 19:33N 58°47' E 010°14'2 2.0
2016-Aug-20 18:33N 58°45' E 010°16'2 2.1
2016-Aug-20 17:33N 58°44' E 010°19'2 2.2
2016-Aug-20 16:33N 58°42' E 010°21'2 2.1
2016-Aug-20 15:33N 58°40' E 010°23'2 2.1
2016-Aug-20 14:33N 58°38' E 010°25'2 2.1
2016-Aug-20 13:33N 58°36' E 010°26'2 2.2
2016-Aug-20 12:33N 58°34' E 010°28'2 2.0
2016-Aug-20 11:33N 58°32' E 010°30'3 2.3
2016-Aug-20 10:22N 58°34' E 010°25'7 8.6
2016-Aug-20 09:33N 58°39' E 010°18'6 6.5
2016-Aug-20 08:33N 58°45' E 010°13'1 1.5
2016-Aug-20 07:34N 58°44' E 010°15'2 2.0
2016-Aug-20 06:33N 58°42' E 010°17'2 2.0
2016-Aug-20 05:33N 58°41' E 010°19'2 2.0
2016-Aug-20 04:33N 58°39' E 010°21'2 2.0
2016-Aug-20 03:33N 58°37' E 010°23'2 2.0
2016-Aug-20 02:33N 58°36' E 010°25'2 2.0
2016-Aug-20 01:28N 58°34' E 010°27'2 2.0
2016-Aug-20 00:33N 58°32' E 010°28'3 2.5
2016-Aug-19 23:33N 58°30' E 010°31'8 7.4
2016-Aug-19 22:32N 58°37' E 010°24'8 8.6
2016-Aug-19 21:33N 58°44' E 010°16'1 1.5
2016-Aug-19 20:33N 58°45' E 010°15'2 2.1
2016-Aug-19 19:33N 58°43' E 010°17'2 2.1
2016-Aug-19 18:33N 58°42' E 010°19'2 2.1
2016-Aug-19 17:33N 58°40' E 010°20'2 2.2
2016-Aug-19 16:33N 58°38' E 010°22'2 2.1
2016-Aug-19 15:33N 58°36' E 010°25'2 2.1
2016-Aug-19 14:33N 58°34' E 010°27'2 2.0
2016-Aug-19 13:33N 58°32' E 010°28'2 0.8
2016-Aug-19 11:14N 58°34' E 010°27'6 8.1
2016-Aug-19 10:33N 58°39' E 010°21'5 4.9
2016-Aug-19 09:33N 58°44' E 010°19'2 1.6
2016-Aug-19 08:33N 58°42' E 010°21'2 2.1
2016-Aug-19 07:33N 58°41' E 010°24'2 2.1
2016-Aug-19 06:33N 58°39' E 010°26'2 2.1
2016-Aug-19 05:33N 58°37' E 010°28'2 2.2
2016-Aug-19 04:33N 58°35' E 010°30'2 2.2
2016-Aug-19 03:33N 58°33' E 010°32'41 6.7
2016-Aug-18 21:21N 57°52' E 010°40'7 9.4
2016-Aug-18 20:33N 57°45' E 010°43'4 0.3
2016-Aug-18 09:22N 57°48' E 010°45'10 9.6
2016-Aug-18 08:21N 57°57' E 010°53'21 9.6
2016-Aug-18 06:12N 58°16' E 011°10'6 9.1
2016-Aug-18 05:34N 58°21' E 011°14'0 0.2
2016-Aug-18 04:33N 58°21' E 011°14'25 2.2
2016-Aug-17 17:22N 58°10' E 010°31'4 1.1
2016-Aug-17 13:22N 58°11' E 010°23'2 1.9
2016-Aug-17 12:33N 58°11' E 010°20'2 2.0
2016-Aug-17 11:32N 58°11' E 010°16'2 2.0
2016-Aug-17 10:33N 58°10' E 010°13'2 1.9
2016-Aug-17 09:33N 58°09' E 010°10'2 2.0
2016-Aug-17 08:33N 58°08' E 010°06'3 2.0
2016-Aug-17 07:16N 58°07' E 010°02'2 2.9
2016-Aug-17 06:33N 58°06' E 009°58'8 8.4
2016-Aug-17 05:33N 58°03' E 009°43'2 1.4
2016-Aug-17 04:28N 58°03' E 009°41'2 2.1
2016-Aug-17 03:32N 58°02' E 009°37'2 1.9
2016-Aug-17 02:32N 58°01' E 009°34'4 2.1
2016-Aug-17 00:26N 57°59' E 009°27'4 2.0
2016-Aug-16 22:31N 57°57' E 009°20'8 2.0
2016-Aug-16 18:33N 57°53' E 009°07'2 2.0
2016-Aug-16 17:33N 57°52' E 009°04'38 2.8
2016-Aug-16 04:04N 58°10' E 010°07'1 2.1
2016-Aug-16 03:33N 58°10' E 010°05'5 2.1
2016-Aug-16 01:09N 58°07' E 009°57'2 2.1
2016-Aug-16 00:21N 58°06' E 009°54'2 2.0
2016-Aug-15 23:29N 58°05' E 009°52'4 1.9
2016-Aug-15 21:33N 58°04' E 009°45'2 2.2
2016-Aug-15 20:33N 58°03' E 009°41'4 2.1
2016-Aug-15 18:29N 58°01' E 009°34'4 2.0
2016-Aug-15 16:32N 57°59' E 009°27'1 0.1
2016-Aug-15 03:25N 57°58' E 009°26'6 2.0
2016-Aug-15 00:16N 57°56' E 009°15'2 2.0
2016-Aug-14 23:27N 57°55' E 009°12'2 2.0
2016-Aug-14 22:29N 57°54' E 009°09'2 2.0
2016-Aug-14 21:17N 57°53' E 009°05'1 2.0
2016-Aug-14 20:33N 57°52' E 009°03'  

Dump ship's entire track history